createdAt,value
2018-12-21T00:00:45.051Z,2.03
2018-12-21T00:03:12.757Z,10.40
2018-12-21T00:05:40.296Z,5.40
2018-12-21T00:08:07.830Z,6.67
2018-12-21T00:10:35.358Z,3.40
2018-12-21T00:13:03.040Z,3.33
2018-12-21T00:15:30.667Z,4.87
2018-12-21T00:17:58.215Z,4.63
2018-12-21T00:20:25.741Z,5.03
2018-12-21T00:22:53.243Z,7.50
2018-12-21T00:25:20.663Z,7.60
2018-12-21T00:27:48.175Z,4.90
2018-12-21T00:30:21.649Z,4.27
2018-12-21T00:32:55.522Z,6.33
2018-12-21T00:35:28.840Z,6.40
2018-12-21T00:38:02.186Z,5.40
2018-12-21T00:40:35.546Z,6.87
2018-12-21T00:43:09.034Z,4.60
2018-12-21T00:45:42.571Z,6.37
2018-12-21T00:48:10.127Z,7.00
2018-12-21T00:50:37.836Z,7.93
2018-12-21T00:53:05.386Z,4.87
2018-12-21T00:55:32.954Z,10.73
2018-12-21T00:58:00.456Z,6.57
2018-12-21T01:00:27.972Z,4.40
2018-12-21T01:02:55.609Z,5.07
2018-12-21T01:05:23.174Z,6.83
2018-12-21T01:07:50.791Z,4.90
2018-12-21T01:10:18.416Z,10.00
2018-12-21T01:12:45.961Z,4.57
2018-12-21T01:15:13.594Z,8.90
2018-12-21T01:17:41.326Z,5.73
2018-12-21T01:20:08.920Z,6.80
2018-12-21T01:22:37.265Z,4.10
2018-12-21T01:25:05.128Z,6.87
2018-12-21T01:27:32.677Z,6.10
2018-12-21T01:30:00.258Z,8.60
2018-12-21T01:32:27.733Z,6.90
2018-12-21T01:34:55.293Z,5.47
2018-12-21T01:37:23.228Z,7.43
2018-12-21T01:39:50.695Z,4.40
2018-12-21T01:42:18.149Z,7.40
2018-12-21T01:44:45.615Z,8.97
2018-12-21T01:47:13.069Z,7.53
2018-12-21T01:49:40.527Z,7.23
2018-12-21T01:52:08.065Z,6.63
2018-12-21T01:54:35.683Z,7.70
2018-12-21T01:57:03.355Z,7.90
2018-12-21T01:59:30.958Z,4.70
2018-12-21T02:01:58.446Z,7.40
2018-12-21T02:04:26.036Z,6.27
2018-12-21T02:06:53.647Z,7.00
2018-12-21T02:09:21.259Z,8.60
2018-12-21T02:11:48.715Z,6.53
2018-12-21T02:14:16.171Z,6.13
2018-12-21T02:16:43.671Z,8.63
2018-12-21T02:19:11.246Z,11.80
2018-12-21T02:21:38.741Z,3.50
2018-12-21T02:24:06.128Z,6.87
2018-12-21T02:26:33.646Z,8.33
2018-12-21T02:29:01.230Z,8.40
2018-12-21T02:31:28.741Z,5.37
2018-12-21T02:33:56.285Z,7.53
2018-12-21T02:36:23.751Z,8.37
2018-12-21T02:38:51.287Z,9.33
2018-12-21T02:41:18.844Z,8.53
2018-12-21T02:43:46.439Z,7.17
2018-12-21T02:46:13.911Z,7.93
2018-12-21T02:48:41.391Z,6.13
2018-12-21T02:51:08.900Z,5.50
2018-12-21T02:53:36.392Z,9.83
2018-12-21T02:56:03.892Z,5.73
2018-12-21T02:58:31.416Z,6.13
2018-12-21T03:00:58.944Z,8.60
2018-12-21T03:03:26.464Z,5.33
2018-12-21T03:05:53.898Z,6.30
2018-12-21T03:08:21.367Z,6.97
2018-12-21T03:10:48.843Z,4.47
2018-12-21T03:13:16.321Z,7.57
2018-12-21T03:15:43.795Z,7.83
2018-12-21T03:18:11.298Z,5.33
2018-12-21T03:20:38.791Z,5.70
2018-12-21T03:23:06.299Z,4.60
2018-12-21T03:25:33.769Z,7.33
2018-12-21T03:28:01.294Z,7.83
2018-12-21T03:30:28.912Z,8.43
2018-12-21T03:32:56.501Z,6.57
2018-12-21T03:35:24.102Z,10.03
2018-12-21T03:37:51.587Z,5.50
2018-12-21T03:40:19.195Z,7.17
2018-12-21T03:42:46.655Z,4.30
2018-12-21T03:45:14.276Z,5.27
2018-12-21T03:47:41.738Z,4.50
2018-12-21T03:50:09.348Z,6.90
2018-12-21T03:52:36.975Z,6.27
2018-12-21T03:55:05.007Z,8.37
2018-12-21T03:57:32.451Z,7.13
2018-12-21T04:00:00.040Z,5.33
2018-12-21T04:02:27.605Z,4.23
2018-12-21T04:04:55.060Z,5.47
2018-12-21T04:07:22.512Z,3.67
2018-12-21T04:09:49.985Z,3.80
2018-12-21T04:12:17.612Z,9.03
2018-12-21T04:14:45.097Z,1.27
2018-12-21T04:17:12.572Z,4.67
2018-12-21T04:19:40.033Z,4.17
2018-12-21T04:22:07.551Z,4.43
2018-12-21T04:24:35.027Z,4.20
2018-12-21T04:27:02.507Z,5.63
2018-12-21T04:29:29.999Z,5.50
2018-12-21T04:31:57.542Z,2.77
2018-12-21T04:34:25.081Z,3.83
2018-12-21T04:36:52.670Z,5.43
2018-12-21T04:39:20.160Z,4.73
2018-12-21T04:41:47.660Z,6.93
2018-12-21T04:44:15.208Z,5.13
2018-12-21T04:46:43.097Z,1.83
2018-12-21T04:49:10.549Z,5.70
2018-12-21T04:51:38.182Z,6.60
2018-12-21T04:54:05.649Z,8.30
2018-12-21T04:56:33.123Z,1.13
2018-12-21T04:59:00.561Z,3.23
2018-12-21T05:01:28.032Z,5.37
2018-12-21T05:03:55.508Z,2.20
2018-12-21T05:06:23.109Z,6.03
2018-12-21T05:08:50.584Z,2.10
2018-12-21T05:11:18.111Z,5.17
2018-12-21T05:13:45.784Z,1.20
2018-12-21T05:16:13.408Z,1.10
2018-12-21T05:18:40.884Z,1.30
2018-12-21T05:21:08.346Z,1.73
2018-12-21T05:23:35.926Z,5.93
2018-12-21T05:26:03.500Z,0.93
2018-12-21T05:28:30.954Z,2.83
2018-12-21T05:30:58.407Z,1.43
2018-12-21T05:33:25.857Z,2.60
2018-12-21T05:35:53.314Z,1.13
2018-12-21T05:38:20.788Z,0.90
2018-12-21T05:40:48.244Z,1.90
2018-12-21T05:43:15.706Z,0.87
2018-12-21T05:45:43.190Z,1.63
2018-12-21T05:48:10.780Z,2.30
2018-12-21T05:50:38.235Z,0.63
2018-12-21T05:53:05.619Z,3.43
2018-12-21T05:55:33.152Z,0.30
2018-12-21T05:58:00.635Z,0.40
2018-12-21T06:00:28.142Z,0.67
2018-12-21T06:02:55.617Z,0.60
2018-12-21T06:05:23.157Z,1.40
2018-12-21T06:07:50.657Z,0.90
2018-12-21T06:10:18.141Z,0.23
2018-12-21T06:12:45.637Z,0.40
2018-12-21T06:15:13.127Z,0.50
2018-12-21T06:17:40.580Z,1.60
2018-12-21T06:20:08.198Z,2.00
2018-12-21T06:22:35.703Z,2.03
2018-12-21T06:25:03.484Z,2.97
2018-12-21T06:27:30.979Z,0.97
2018-12-21T06:29:58.478Z,1.33
2018-12-21T06:32:25.959Z,1.70
2018-12-21T06:34:53.441Z,4.67
2018-12-21T06:37:21.177Z,0.80
2018-12-21T06:39:48.989Z,0.80
2018-12-21T06:42:16.435Z,1.57
2018-12-21T06:44:43.895Z,0.17
2018-12-21T06:47:11.375Z,0.80
2018-12-21T06:49:38.873Z,1.90
2018-12-21T06:52:06.368Z,0.70
2018-12-21T06:54:33.828Z,0.20
2018-12-21T06:57:01.322Z,0.57
2018-12-21T06:59:28.821Z,0.97
2018-12-21T07:01:56.391Z,0.30
2018-12-21T07:04:23.854Z,1.00
2018-12-21T07:06:51.311Z,0.40
2018-12-21T07:09:18.847Z,0.30
2018-12-21T07:11:46.560Z,0.20
2018-12-21T07:14:14.057Z,0.20
2018-12-21T07:16:41.621Z,0.93
2018-12-21T07:19:09.063Z,0.40
2018-12-21T07:21:36.587Z,0.40
2018-12-21T07:24:04.089Z,8.10
2018-12-21T07:26:31.563Z,0.80
2018-12-21T07:28:58.987Z,0.93
2018-12-21T07:31:26.483Z,0.43
2018-12-21T07:33:54.141Z,3.73
2018-12-21T07:36:21.593Z,1.47
2018-12-21T07:38:49.118Z,0.80
2018-12-21T07:41:16.587Z,0.57
2018-12-21T07:43:44.096Z,0.57
2018-12-21T07:46:13.226Z,1.77
2018-12-21T07:48:41.109Z,1.50
2018-12-21T07:51:08.775Z,1.00
2018-12-21T07:53:36.295Z,2.03
2018-12-21T07:56:03.957Z,0.70
2018-12-21T07:58:31.419Z,0.73
2018-12-21T08:00:58.870Z,1.23
2018-12-21T08:03:26.326Z,2.53
2018-12-21T08:05:53.812Z,3.43
2018-12-21T08:08:21.292Z,1.40
2018-12-21T08:10:48.812Z,4.90
2018-12-21T08:13:16.284Z,5.03
2018-12-21T08:15:43.759Z,0.80
2018-12-21T08:18:11.189Z,4.83
2018-12-21T08:20:38.730Z,2.60
2018-12-21T08:23:06.319Z,2.20
2018-12-21T08:25:33.773Z,2.87
2018-12-21T08:28:01.305Z,1.00
2018-12-21T08:30:28.844Z,4.60
2018-12-21T08:32:56.311Z,3.07
2018-12-21T08:35:23.759Z,3.07
2018-12-21T08:37:51.231Z,1.30
2018-12-21T08:40:18.667Z,2.57
2018-12-21T08:42:46.023Z,5.23
2018-12-21T08:45:13.457Z,1.73
2018-12-21T08:47:41.059Z,2.47
2018-12-21T08:50:09.991Z,0.87
2018-12-21T08:52:37.535Z,1.60
2018-12-21T08:55:05.715Z,2.23
2018-12-21T08:57:33.195Z,1.50
2018-12-21T09:00:00.717Z,2.77
2018-12-21T09:02:28.163Z,2.20
2018-12-21T09:04:55.639Z,0.40
2018-12-21T09:07:23.109Z,1.43
2018-12-21T09:09:50.575Z,1.60
2018-12-21T09:12:18.068Z,2.33
2018-12-21T09:14:45.532Z,3.33
2018-12-21T09:17:13.087Z,5.67
2018-12-21T09:19:40.568Z,6.77
2018-12-21T09:22:08.031Z,4.17
2018-12-21T09:24:35.490Z,2.90
2018-12-21T09:27:03.173Z,3.07
2018-12-21T09:29:30.630Z,3.47
2018-12-21T09:32:05.081Z,2.77
2018-12-21T09:34:27.886Z,2.20
2018-12-21T09:36:55.344Z,0.50
2018-12-21T09:39:22.814Z,2.13
2018-12-21T09:41:50.256Z,1.90
2018-12-21T09:44:17.760Z,1.07
2018-12-21T09:46:45.616Z,2.83
2018-12-21T09:49:13.144Z,1.40
2018-12-21T09:51:40.612Z,3.13
2018-12-21T09:54:10.084Z,2.43
2018-12-21T09:56:37.605Z,3.67
2018-12-21T09:59:05.105Z,2.40
2018-12-21T10:01:32.589Z,1.93
2018-12-21T10:04:00.148Z,3.23
2018-12-21T10:06:28.594Z,2.60
2018-12-21T10:08:56.090Z,3.83
2018-12-21T10:11:23.533Z,4.27
2018-12-21T10:13:51.108Z,2.57
2018-12-21T10:16:18.532Z,2.30
2018-12-21T10:18:45.965Z,1.13
2018-12-21T10:21:13.418Z,1.80
2018-12-21T10:23:40.908Z,1.23
2018-12-21T10:26:08.380Z,1.60
2018-12-21T10:28:35.747Z,2.23
2018-12-21T10:31:03.344Z,0.67
2018-12-21T10:33:30.799Z,0.40
2018-12-21T10:35:58.291Z,2.20
2018-12-21T10:38:25.917Z,1.53
2018-12-21T10:40:53.435Z,0.90
2018-12-21T10:43:20.907Z,1.57
2018-12-21T10:45:48.391Z,2.77
2018-12-21T10:48:15.903Z,0.90
2018-12-21T10:50:43.377Z,0.40
2018-12-21T10:53:10.827Z,2.83
2018-12-21T10:55:38.271Z,1.00
2018-12-21T10:58:05.745Z,1.00
2018-12-21T11:00:33.240Z,1.03
2018-12-21T11:03:00.755Z,0.70
2018-12-21T11:05:28.206Z,1.23
2018-12-21T11:07:55.679Z,0.67
2018-12-21T11:10:23.193Z,0.83
2018-12-21T11:12:50.639Z,0.57
2018-12-21T11:15:18.087Z,1.00
2018-12-21T11:17:45.542Z,1.00
2018-12-21T11:20:13.004Z,2.30
2018-12-21T11:22:40.440Z,1.13
2018-12-21T11:25:09.816Z,1.77
2018-12-21T11:27:37.664Z,0.90
2018-12-21T11:30:05.854Z,1.40
2018-12-21T11:32:33.325Z,1.63
2018-12-21T11:35:00.794Z,1.33
2018-12-21T11:37:28.251Z,2.40
2018-12-21T11:39:55.750Z,2.77
2018-12-21T11:42:23.353Z,0.70
2018-12-21T11:44:50.813Z,1.00
2018-12-21T11:47:18.271Z,0.57
2018-12-21T11:49:46.645Z,0.83
2018-12-21T11:52:14.152Z,0.60
2018-12-21T11:54:44.421Z,0.63
2018-12-21T11:57:11.016Z,0.70
2018-12-21T11:59:44.800Z,0.60
2018-12-21T12:02:08.811Z,0.50
2018-12-21T12:04:36.252Z,1.90
2018-12-21T12:07:03.687Z,0.87
2018-12-21T12:09:31.127Z,1.70
2018-12-21T12:11:58.567Z,1.00
2018-12-21T12:14:26.053Z,0.10
2018-12-21T12:16:53.545Z,1.13
2018-12-21T12:19:21.758Z,0.73
2018-12-21T12:21:49.236Z,1.10
2018-12-21T12:24:16.771Z,0.30
2018-12-21T12:26:44.483Z,0.80
2018-12-21T12:29:12.249Z,0.63
2018-12-21T12:31:39.707Z,0.20
2018-12-21T12:34:07.169Z,0.20
2018-12-21T12:36:34.808Z,0.23
2018-12-21T12:39:02.701Z,0.30
2018-12-21T12:41:30.155Z,0.30
2018-12-21T12:43:57.663Z,0.30
2018-12-21T12:46:25.159Z,0.63
2018-12-21T12:48:52.717Z,0.57
2018-12-21T12:51:20.132Z,0.60
2018-12-21T12:53:47.647Z,0.97
2018-12-21T12:56:15.092Z,1.57
2018-12-21T12:58:42.533Z,1.00
2018-12-21T13:01:10.119Z,0.30
2018-12-21T13:03:37.603Z,0.70
2018-12-21T13:06:05.083Z,0.40
2018-12-21T13:08:32.543Z,0.73
2018-12-21T13:10:59.993Z,0.43
2018-12-21T13:13:27.331Z,1.27
2018-12-21T13:15:54.811Z,0.90
2018-12-21T13:18:22.270Z,0.87
2018-12-21T13:20:49.799Z,0.60
2018-12-21T13:23:17.335Z,0.60
2018-12-21T13:25:44.807Z,0.63
2018-12-21T13:28:12.357Z,1.00
2018-12-21T13:30:39.911Z,2.40
2018-12-21T13:33:07.428Z,1.13
2018-12-21T13:35:34.988Z,1.47
2018-12-21T13:38:02.395Z,1.00
2018-12-21T13:40:29.849Z,0.83
2018-12-21T13:42:57.313Z,0.73
2018-12-21T13:45:24.763Z,0.70
2018-12-21T13:47:52.203Z,1.40
2018-12-21T13:50:19.679Z,3.40
2018-12-21T13:52:47.147Z,0.83
2018-12-21T13:55:20.297Z,1.20
2018-12-21T13:57:44.098Z,1.73
2018-12-21T14:00:11.577Z,0.53
2018-12-21T14:02:39.023Z,2.33
2018-12-21T14:05:07.067Z,1.93
2018-12-21T14:07:34.591Z,0.70
2018-12-21T14:10:02.187Z,0.70
2018-12-21T14:12:29.643Z,1.13
2018-12-21T14:14:57.103Z,1.23
2018-12-21T14:17:24.545Z,1.07
2018-12-21T14:19:51.998Z,2.40
2018-12-21T14:22:19.495Z,0.60
2018-12-21T14:24:47.002Z,1.13
2018-12-21T14:27:14.460Z,1.33
2018-12-21T14:29:41.931Z,1.13
2018-12-21T14:32:09.428Z,0.93
2018-12-21T14:34:36.896Z,0.70
2018-12-21T14:37:04.472Z,3.23
2018-12-21T14:39:31.960Z,2.60
2018-12-21T14:41:59.432Z,0.67
2018-12-21T14:44:26.868Z,1.03
2018-12-21T14:46:54.350Z,1.50
2018-12-21T14:49:21.850Z,0.87
2018-12-21T14:51:49.348Z,1.43
2018-12-21T14:54:16.833Z,2.57
2018-12-21T14:56:44.484Z,1.33
2018-12-21T14:59:11.972Z,1.47
2018-12-21T15:01:39.484Z,3.33
2018-12-21T15:04:07.069Z,2.43
2018-12-21T15:06:34.632Z,2.33
2018-12-21T15:09:03.276Z,3.50
2018-12-21T15:11:30.790Z,1.17
2018-12-21T15:13:58.218Z,3.23
2018-12-21T15:16:25.775Z,1.17
2018-12-21T15:18:53.296Z,1.87
2018-12-21T15:21:20.808Z,3.10
2018-12-21T15:23:48.269Z,2.13
2018-12-21T15:26:15.729Z,1.70
2018-12-21T15:28:43.187Z,2.67
2018-12-21T15:31:10.689Z,4.20
2018-12-21T15:33:38.155Z,6.10
2018-12-21T15:36:05.716Z,7.27
2018-12-21T15:38:33.234Z,4.97
2018-12-21T15:41:00.858Z,4.63
2018-12-21T15:43:28.307Z,8.80
2018-12-21T15:45:55.783Z,8.03
2018-12-21T15:48:23.316Z,14.67
2018-12-21T15:50:51.036Z,11.97
2018-12-21T15:53:18.523Z,12.53
2018-12-21T15:55:54.592Z,13.00
2018-12-21T15:58:15.570Z,11.70
2018-12-21T16:00:43.063Z,12.40
2018-12-21T16:03:10.487Z,7.77
2018-12-21T16:05:37.975Z,13.70
2018-12-21T16:08:05.452Z,13.20
2018-12-21T16:10:32.915Z,13.53
2018-12-21T16:13:00.391Z,18.07
2018-12-21T16:15:27.827Z,18.37
2018-12-21T16:17:55.324Z,15.30
2018-12-21T16:20:22.800Z,16.53
2018-12-21T16:22:50.226Z,17.33
2018-12-21T16:25:17.711Z,15.73
2018-12-21T16:27:45.723Z,16.17
2018-12-21T16:30:13.203Z,16.80
2018-12-21T16:32:40.664Z,16.77
2018-12-21T16:35:08.251Z,19.73
2018-12-21T16:37:35.772Z,17.73
2018-12-21T16:40:04.055Z,22.07
2018-12-21T16:42:31.511Z,24.33
2018-12-21T16:44:58.994Z,18.43
2018-12-21T16:47:27.071Z,17.00
2018-12-21T16:49:54.519Z,25.77
2018-12-21T16:52:22.087Z,16.07
2018-12-21T16:54:49.597Z,17.63
2018-12-21T16:57:23.735Z,23.70
2018-12-21T16:59:51.209Z,16.90
2018-12-21T17:02:18.683Z,17.27
2018-12-21T17:04:46.165Z,15.60
2018-12-21T17:07:13.639Z,15.57
2018-12-21T17:09:41.163Z,18.30
2018-12-21T17:12:08.685Z,25.13
2018-12-21T17:14:36.191Z,21.57
2018-12-21T17:17:05.057Z,21.73
2018-12-21T17:19:32.730Z,24.43
2018-12-21T17:22:00.439Z,21.47
2018-12-21T17:24:27.867Z,25.07
2018-12-21T17:26:55.323Z,20.97
2018-12-21T17:29:22.787Z,19.50
2018-12-21T17:31:50.216Z,23.70
2018-12-21T17:34:17.721Z,23.27
2018-12-21T17:36:45.279Z,32.30
2018-12-21T17:39:12.709Z,23.47
2018-12-21T17:41:40.277Z,21.30
2018-12-21T17:44:07.753Z,26.57
2018-12-21T17:46:35.243Z,23.63
2018-12-21T17:49:03.239Z,19.73
2018-12-21T17:51:30.711Z,21.27
2018-12-21T17:53:58.197Z,22.43
2018-12-21T17:56:29.822Z,24.30
2018-12-21T17:58:55.266Z,29.27
2018-12-21T18:01:23.595Z,24.87
2018-12-21T18:03:58.031Z,22.67
2018-12-21T18:06:25.543Z,23.00
2018-12-21T18:08:52.979Z,26.33
2018-12-21T18:11:20.459Z,26.00
2018-12-21T18:13:48.403Z,22.07
2018-12-21T18:16:15.890Z,25.80
2018-12-21T18:18:43.343Z,30.23
2018-12-21T18:21:10.869Z,22.40
2018-12-21T18:23:39.203Z,27.27
2018-12-21T18:26:13.349Z,29.27
2018-12-21T18:28:40.989Z,27.43
2018-12-21T18:31:23.331Z,30.73
2018-12-21T18:33:51.162Z,35.73
2018-12-21T18:36:18.679Z,33.90
2018-12-21T18:38:46.233Z,29.03
2018-12-21T18:41:13.736Z,27.20
2018-12-21T18:43:41.322Z,26.60
2018-12-21T18:46:08.801Z,23.33
2018-12-21T18:48:36.267Z,21.80
2018-12-21T18:51:03.711Z,26.57
2018-12-21T18:53:31.196Z,29.87
2018-12-21T18:55:59.103Z,28.83
2018-12-21T18:58:26.568Z,29.27
2018-12-21T19:00:54.079Z,29.03
2018-12-21T19:03:21.795Z,30.07
2018-12-21T19:05:49.347Z,26.17
2018-12-21T19:08:16.807Z,36.07
2018-12-21T19:10:44.347Z,32.27
2018-12-21T19:13:11.868Z,30.23
2018-12-21T19:15:39.360Z,27.00
2018-12-21T19:18:06.968Z,31.10
2018-12-21T19:20:34.491Z,28.63
2018-12-21T19:23:02.035Z,30.73
2018-12-21T19:25:29.538Z,32.00
2018-12-21T19:27:57.016Z,29.87
2018-12-21T19:30:25.204Z,24.40
2018-12-21T19:32:52.973Z,29.27
2018-12-21T19:35:27.455Z,29.93
2018-12-21T19:37:49.980Z,30.47
2018-12-21T19:40:17.505Z,38.63
2018-12-21T19:42:45.028Z,31.93
2018-12-21T19:45:13.553Z,21.20
2018-12-21T19:47:41.148Z,28.67
2018-12-21T19:50:09.779Z,26.20
2018-12-21T19:52:37.326Z,28.73
2018-12-21T19:56:14.166Z,27.93
2018-12-21T19:58:41.653Z,26.03
2018-12-21T20:01:09.143Z,35.43
2018-12-21T20:03:36.648Z,27.10
2018-12-21T20:06:04.219Z,26.50
2018-12-21T20:08:32.027Z,29.70
2018-12-21T20:10:59.594Z,28.00
2018-12-21T20:13:27.071Z,33.33
2018-12-21T20:15:54.569Z,29.47
2018-12-21T20:18:22.023Z,32.77
2018-12-21T20:20:49.510Z,34.03
2018-12-21T20:23:17.034Z,27.13
2018-12-21T20:25:44.835Z,33.47
2018-12-21T20:28:12.474Z,32.17
2018-12-21T20:30:39.998Z,35.90
2018-12-21T20:33:07.521Z,32.17
2018-12-21T20:35:35.249Z,28.87
2018-12-21T20:38:03.197Z,30.83
2018-12-21T20:40:30.729Z,29.67
2018-12-21T20:42:58.212Z,27.60
2018-12-21T20:45:25.691Z,29.77
2018-12-21T20:47:53.182Z,32.07
2018-12-21T20:50:20.720Z,32.50
2018-12-21T20:52:48.426Z,41.43
2018-12-21T20:55:16.055Z,38.60
2018-12-21T20:57:46.195Z,37.40
2018-12-21T21:00:15.725Z,31.63
2018-12-21T21:02:43.195Z,37.70
2018-12-21T21:05:10.695Z,28.03
2018-12-21T21:07:38.171Z,29.53
2018-12-21T21:10:09.028Z,31.80
2018-12-21T21:12:36.550Z,29.50
2018-12-21T21:15:05.779Z,25.00
2018-12-21T21:17:33.333Z,30.53
2018-12-21T21:20:00.717Z,37.43
2018-12-21T21:22:28.300Z,36.63
2018-12-21T21:24:55.816Z,38.13
2018-12-21T21:27:30.382Z,36.67
2018-12-21T21:29:52.814Z,26.07
2018-12-21T21:32:20.432Z,28.07
2018-12-21T21:34:47.977Z,30.63
2018-12-21T21:37:15.616Z,30.60
2018-12-21T21:39:44.054Z,35.27
2018-12-21T21:42:12.060Z,34.70
2018-12-21T21:44:39.868Z,32.83
2018-12-21T21:47:07.382Z,39.50
2018-12-21T21:49:34.888Z,34.07
2018-12-21T21:52:02.609Z,41.27
2018-12-21T21:54:30.123Z,33.83
2018-12-21T21:57:04.322Z,36.03
2018-12-21T21:59:31.861Z,35.07
2018-12-21T22:01:59.488Z,36.20
2018-12-21T22:04:27.065Z,29.40
2018-12-21T22:06:54.563Z,29.20
2018-12-21T22:09:22.038Z,30.30
2018-12-21T22:11:49.529Z,34.77
2018-12-21T22:14:17.012Z,26.90
2018-12-21T22:16:44.660Z,36.93
2018-12-21T22:19:12.215Z,38.87
2018-12-21T22:21:39.708Z,37.30
2018-12-21T22:24:07.126Z,37.93
2018-12-21T22:26:34.665Z,34.50
2018-12-21T22:29:02.149Z,36.00
2018-12-21T22:31:29.540Z,30.70
2018-12-21T22:33:57.053Z,29.80
2018-12-21T22:36:24.865Z,37.87
2018-12-21T22:38:52.393Z,32.13
2018-12-21T22:41:19.927Z,34.97
2018-12-21T22:43:47.467Z,27.70
2018-12-21T22:48:39.667Z,32.53
2018-12-21T22:51:07.175Z,29.73
2018-12-21T22:53:34.672Z,29.70
2018-12-21T22:56:02.200Z,34.50
2018-12-21T22:58:29.729Z,35.50
2018-12-21T23:00:57.353Z,24.60
2018-12-21T23:03:24.837Z,33.83
2018-12-21T23:05:52.198Z,36.97
2018-12-21T23:08:20.033Z,33.97
2018-12-21T23:10:47.536Z,29.63
2018-12-21T23:13:15.049Z,29.67
2018-12-21T23:15:42.585Z,29.73
2018-12-21T23:18:10.105Z,29.80
2018-12-21T23:20:37.580Z,29.00
2018-12-21T23:23:05.077Z,32.37
2018-12-21T23:25:32.547Z,32.27
2018-12-21T23:28:04.921Z,30.67
2018-12-21T23:30:29.598Z,33.17
2018-12-21T23:32:57.078Z,30.33
2018-12-21T23:35:24.571Z,35.40
2018-12-21T23:37:52.057Z,32.90
2018-12-21T23:40:19.571Z,29.53
2018-12-21T23:42:47.053Z,31.43
2018-12-21T23:45:14.535Z,28.17
2018-12-21T23:47:41.997Z,28.60
2018-12-21T23:50:09.523Z,36.07
2018-12-21T23:52:36.994Z,33.00
2018-12-21T23:55:05.249Z,33.77
2018-12-21T23:57:32.729Z,38.00
